createdAt,value
2019-06-20T05:20:25.186Z,3.47
2019-06-20T05:23:55.765Z,3.85
2019-06-20T05:26:24.343Z,3.90
2019-06-20T05:29:24.025Z,3.60
2019-06-20T05:31:52.571Z,3.62
2019-06-20T05:34:24.234Z,3.75
2019-06-20T05:36:53.817Z,3.35
2019-06-20T05:39:22.853Z,3.20
2019-06-20T05:41:51.543Z,3.55
2019-06-20T05:44:20.109Z,3.50
2019-06-20T05:46:48.953Z,3.80
2019-06-20T05:49:17.571Z,3.22
2019-06-20T05:51:46.419Z,4.03
2019-06-20T05:54:15.730Z,3.55
2019-06-20T05:56:44.707Z,3.72
2019-06-20T05:59:18.558Z,3.60
2019-06-20T06:01:55.361Z,3.25
2019-06-20T06:04:24.391Z,3.87
2019-06-20T06:06:53.085Z,3.67
2019-06-20T06:09:22.029Z,3.77
2019-06-20T06:11:52.603Z,3.65
2019-06-20T06:14:21.256Z,3.90
2019-06-20T06:16:49.986Z,3.40
2019-06-20T06:19:18.560Z,3.62
2019-06-20T06:21:50.207Z,4.00
2019-06-20T06:24:18.675Z,3.83
2019-06-20T06:26:50.314Z,3.87
2019-06-20T06:29:20.835Z,4.00
2019-06-20T06:31:49.518Z,3.52
2019-06-20T06:34:21.883Z,3.95
2019-06-20T06:36:48.725Z,4.15
2019-06-20T06:39:17.775Z,3.30
2019-06-20T06:41:52.370Z,3.58
2019-06-20T06:44:23.055Z,3.92
2019-06-20T06:46:57.478Z,3.60
2019-06-20T06:49:22.954Z,3.45
2019-06-20T06:51:51.500Z,3.75
2019-06-20T06:54:20.302Z,3.50
2019-06-20T06:59:21.991Z,3.87
2019-06-20T07:01:49.250Z,3.47
2019-06-20T07:04:18.303Z,3.77
2019-06-20T07:06:45.654Z,3.58
2019-06-20T07:09:12.530Z,3.90
2019-06-20T07:11:39.230Z,3.62
2019-06-20T07:14:05.673Z,3.80
2019-06-20T07:16:32.094Z,3.75
2019-06-20T07:18:58.873Z,3.70
2019-06-20T07:21:27.083Z,4.10
2019-06-20T07:23:54.745Z,4.00
2019-06-20T07:26:21.973Z,4.08
2019-06-20T07:29:03.625Z,4.20
2019-06-20T07:33:54.895Z,4.75
2019-06-20T07:36:24.541Z,4.58
2019-06-20T07:38:55.084Z,4.50
2019-06-20T07:41:24.547Z,4.45
2019-06-20T07:44:00.850Z,4.50
2019-06-20T07:46:30.555Z,4.30
2019-06-20T07:49:00.335Z,4.40
2019-06-20T07:51:32.502Z,3.98
2019-06-20T07:54:03.580Z,4.58
2019-06-20T07:56:33.518Z,4.70
2019-06-20T07:59:12.712Z,4.45
2019-06-20T08:01:42.521Z,4.45
2019-06-20T08:04:11.928Z,3.70
2019-06-20T08:06:42.691Z,3.77
2019-06-20T08:09:12.029Z,3.83
2019-06-20T08:11:42.693Z,3.85
2019-06-20T08:14:16.193Z,3.92
2019-06-20T08:16:49.282Z,3.72
2019-06-20T08:19:18.938Z,3.92
2019-06-20T08:21:49.172Z,3.55
2019-06-20T08:24:18.694Z,3.60
2019-06-20T08:26:48.713Z,3.52
2019-06-20T08:29:21.278Z,3.47
2019-06-20T08:31:52.217Z,3.45
2019-06-20T08:34:22.954Z,3.22
2019-06-20T08:36:52.332Z,3.62
2019-06-20T08:39:21.981Z,3.40
2019-06-20T08:41:52.911Z,3.67
2019-06-20T08:44:22.302Z,3.12
2019-06-20T08:46:52.978Z,3.20
2019-06-20T08:49:22.501Z,2.95
2019-06-20T08:51:55.626Z,2.95
2019-06-20T08:54:25.044Z,2.90
2019-06-20T08:56:57.042Z,3.40
2019-06-20T08:59:25.918Z,3.20
2019-06-20T09:01:58.033Z,4.40
2019-06-20T09:04:26.501Z,3.30
2019-06-20T09:06:57.529Z,3.20
2019-06-20T09:09:27.290Z,3.17
2019-06-20T09:11:58.551Z,3.50
2019-06-20T09:14:28.135Z,3.15
2019-06-20T09:16:59.315Z,3.30
2019-06-20T09:19:29.761Z,3.30
2019-06-20T09:22:01.244Z,3.27
2019-06-20T09:24:30.704Z,3.27
2019-06-20T09:27:06.635Z,3.35
2019-06-20T09:29:41.588Z,3.20
2019-06-20T09:32:16.918Z,3.17
2019-06-20T09:34:46.363Z,3.22
2019-06-20T09:37:18.974Z,3.02
2019-06-20T09:39:48.317Z,2.98
2019-06-20T09:42:17.804Z,3.30
2019-06-20T09:44:47.375Z,2.90
2019-06-20T09:47:21.059Z,3.05
2019-06-20T09:49:53.560Z,3.35
2019-06-20T09:52:22.984Z,3.37
2019-06-20T09:54:53.871Z,4.92
2019-06-20T09:57:29.705Z,3.75
2019-06-20T10:00:09.609Z,3.85
2019-06-20T10:02:35.178Z,3.92
2019-06-20T10:05:06.749Z,3.77
2019-06-20T10:07:37.147Z,4.12
2019-06-20T10:10:10.913Z,3.37
2019-06-20T10:12:49.585Z,3.98
2019-06-20T10:15:28.047Z,3.70
2019-06-20T10:17:58.671Z,3.95
2019-06-20T10:20:40.818Z,3.83
2019-06-20T10:23:10.186Z,3.52
2019-06-20T10:25:40.853Z,3.75
2019-06-20T10:28:11.903Z,3.77
2019-06-20T10:30:41.254Z,3.70
2019-06-20T10:33:10.699Z,3.60
2019-06-20T10:35:40.097Z,3.77
2019-06-20T10:38:10.041Z,3.55
2019-06-20T10:40:39.476Z,3.50
2019-06-20T10:43:09.911Z,3.55
2019-06-20T10:45:39.642Z,3.83
2019-06-20T10:48:11.344Z,3.67
2019-06-20T10:50:44.007Z,3.27
2019-06-20T10:53:14.223Z,3.35
2019-06-20T10:55:44.881Z,3.55
2019-06-20T10:58:14.706Z,3.60
2019-06-20T11:00:44.597Z,3.60
2019-06-20T11:03:15.648Z,3.85
2019-06-20T11:05:48.110Z,3.67
2019-06-20T11:08:17.595Z,3.55
2019-06-20T11:10:47.307Z,3.15
2019-06-20T11:13:18.374Z,3.27
2019-06-20T11:15:52.110Z,3.42
2019-06-20T11:18:21.895Z,3.35
2019-06-20T11:20:52.322Z,3.47
2019-06-20T11:23:21.739Z,3.17
2019-06-20T11:25:55.074Z,3.12
2019-06-20T11:28:24.507Z,3.30
2019-06-20T11:31:00.978Z,3.40
2019-06-20T11:33:30.462Z,2.95
2019-06-20T11:35:59.889Z,2.70
2019-06-20T11:38:29.701Z,3.00
2019-06-20T11:41:00.421Z,3.20
2019-06-20T11:43:29.868Z,3.20
2019-06-20T11:45:59.320Z,3.00
2019-06-20T11:48:29.347Z,2.80
2019-06-20T11:50:59.771Z,2.67
2019-06-20T11:53:30.403Z,2.80
2019-06-20T11:56:00.265Z,2.87
2019-06-20T11:58:33.070Z,2.80
2019-06-20T12:01:04.236Z,2.60
2019-06-20T12:03:34.167Z,2.60
2019-06-20T12:06:03.769Z,2.70
2019-06-20T12:08:40.461Z,2.95
2019-06-20T12:11:12.029Z,2.70
2019-06-20T12:13:44.285Z,2.58
2019-06-20T12:16:15.260Z,2.47
2019-06-20T12:18:45.297Z,2.65
2019-06-20T12:21:16.014Z,2.30
2019-06-20T12:23:46.885Z,2.08
2019-06-20T12:26:19.517Z,2.52
2019-06-20T12:28:49.111Z,2.55
2019-06-20T12:31:19.946Z,2.58
2019-06-20T12:33:51.638Z,2.67
2019-06-20T12:36:21.279Z,2.98
2019-06-20T12:38:52.219Z,2.58
2019-06-20T12:41:24.452Z,2.77
2019-06-20T12:43:54.516Z,2.87
2019-06-20T12:46:24.287Z,2.90
2019-06-20T12:48:55.458Z,3.00
2019-06-20T12:51:34.807Z,2.60
2019-06-20T12:54:05.340Z,3.00
2019-06-20T12:56:41.913Z,2.77
2019-06-20T12:59:11.971Z,2.67
2019-06-20T13:01:45.721Z,2.45
2019-06-20T13:04:12.832Z,3.30
2019-06-20T13:06:42.487Z,3.30
2019-06-20T13:09:11.996Z,3.02
2019-06-20T13:11:42.676Z,3.12
2019-06-20T13:14:12.356Z,3.00
2019-06-20T13:16:46.140Z,3.25
2019-06-20T13:19:15.768Z,3.25
2019-06-20T13:21:46.581Z,3.08
2019-06-20T13:24:16.142Z,3.42
2019-06-20T13:26:48.917Z,3.17
2019-06-20T13:29:19.091Z,3.40
2019-06-20T13:32:03.553Z,3.08
2019-06-20T13:34:23.682Z,3.50
2019-06-20T13:36:53.138Z,3.77
2019-06-20T13:39:23.276Z,3.35
2019-06-20T13:41:52.815Z,3.92
2019-06-20T13:44:23.932Z,3.45
2019-06-20T13:46:55.928Z,4.40
2019-06-20T13:49:26.304Z,3.90
2019-06-20T13:52:00.117Z,3.80
2019-06-20T13:54:30.383Z,3.87
2019-06-20T13:57:00.033Z,3.75
2019-06-20T13:59:32.260Z,3.95
2019-06-20T14:02:06.813Z,4.25
2019-06-20T14:04:33.085Z,4.15
2019-06-20T14:07:02.508Z,4.25
2019-06-20T14:09:31.949Z,4.60
2019-06-20T14:12:01.421Z,4.30
2019-06-20T14:14:31.507Z,4.00
2019-06-20T14:17:02.164Z,3.90
2019-06-20T14:19:31.989Z,3.72
2019-06-20T14:22:01.395Z,4.80
2019-06-20T14:24:31.189Z,4.08
2019-06-20T14:27:00.632Z,4.50
2019-06-20T14:29:30.203Z,4.22
2019-06-20T14:32:02.936Z,4.10
2019-06-20T14:34:32.361Z,4.45
2019-06-20T14:37:01.835Z,3.90
2019-06-20T14:39:34.123Z,4.70
2019-06-20T14:42:02.553Z,4.33
2019-06-20T14:44:32.047Z,4.50
2019-06-20T14:47:01.432Z,4.25
2019-06-20T14:49:31.612Z,4.30
2019-06-20T14:52:01.016Z,4.17
2019-06-20T14:54:31.971Z,4.03
2019-06-20T14:57:02.362Z,4.08
2019-06-20T14:59:35.261Z,4.20
2019-06-20T15:02:03.161Z,3.98
2019-06-20T15:04:32.642Z,3.67
2019-06-20T15:07:02.064Z,3.90
2019-06-20T15:09:33.438Z,4.40
2019-06-20T15:12:02.832Z,3.72
2019-06-20T15:14:32.275Z,3.80
2019-06-20T15:17:02.048Z,3.70
2019-06-20T15:19:31.493Z,3.77
2019-06-20T15:22:00.986Z,4.15
2019-06-20T15:24:30.845Z,4.40
2019-06-20T15:27:00.549Z,4.03
2019-06-20T15:29:30.073Z,4.08
2019-06-20T15:31:59.843Z,3.70
2019-06-20T15:34:29.299Z,4.12
2019-06-20T15:36:59.212Z,4.28
2019-06-20T15:39:28.583Z,3.70
2019-06-20T15:41:58.275Z,3.58
2019-06-20T15:44:27.898Z,5.90
2019-06-20T15:46:58.646Z,4.20
2019-06-20T15:49:31.821Z,3.72
2019-06-20T15:52:01.218Z,3.58
2019-06-20T15:54:30.916Z,3.50
2019-06-20T15:57:01.682Z,3.42
2019-06-20T15:59:33.614Z,3.50
2019-06-20T16:02:09.156Z,3.90
2019-06-20T16:04:43.057Z,3.52
2019-06-20T16:07:19.734Z,3.80
2019-06-20T16:09:50.100Z,3.33
2019-06-20T16:12:19.679Z,3.70
2019-06-20T16:14:49.040Z,3.17
2019-06-20T16:17:20.383Z,3.60
2019-06-20T16:19:49.766Z,3.22
2019-06-20T16:22:19.171Z,3.45
2019-06-20T16:24:48.543Z,3.45
2019-06-20T16:27:18.048Z,3.10
2019-06-20T16:29:51.366Z,3.50
2019-06-20T16:34:49.450Z,3.22
2019-06-20T16:37:18.865Z,3.10
2019-06-20T16:39:48.324Z,3.08
2019-06-20T16:42:18.501Z,3.58
2019-06-20T16:44:48.160Z,2.92
2019-06-20T16:47:18.338Z,3.10
2019-06-20T16:49:47.863Z,3.27
2019-06-20T16:52:17.799Z,3.10
2019-06-20T16:54:47.352Z,3.30
2019-06-20T16:57:19.331Z,3.17
2019-06-20T16:59:48.771Z,3.12
2019-06-20T17:02:18.208Z,3.35
2019-06-20T17:04:47.701Z,3.17
2019-06-20T17:07:18.106Z,3.00
2019-06-20T17:09:47.566Z,3.40
2019-06-20T17:12:16.946Z,3.17
2019-06-20T17:14:46.416Z,3.60
2019-06-20T17:17:15.789Z,3.55
2019-06-20T17:19:46.890Z,3.22
2019-06-20T17:22:17.094Z,3.60
2019-06-20T17:24:47.716Z,3.40
2019-06-20T17:27:17.191Z,3.45
2019-06-20T17:29:46.714Z,3.20
2019-06-20T17:32:17.860Z,3.50
2019-06-20T17:34:47.415Z,3.20
2019-06-20T17:37:17.092Z,3.22
2019-06-20T17:39:46.583Z,3.50
2019-06-20T17:42:16.530Z,3.60
2019-06-20T17:44:46.762Z,3.85
2019-06-20T17:47:16.252Z,3.60
2019-06-20T17:49:45.978Z,3.60
2019-06-20T17:52:15.671Z,3.70
2019-06-20T17:54:45.597Z,3.35
2019-06-20T17:57:15.222Z,3.45
2019-06-20T17:59:44.621Z,3.50
2019-06-20T18:02:14.050Z,3.60
2019-06-20T18:04:43.499Z,3.52
2019-06-20T18:07:12.872Z,3.50
2019-06-20T18:09:44.329Z,3.60
2019-06-20T18:12:13.803Z,3.98
2019-06-20T18:14:44.076Z,3.50
2019-06-20T18:17:13.850Z,4.10
2019-06-20T18:19:45.079Z,3.52
2019-06-20T18:22:14.582Z,3.77
2019-06-20T18:24:45.643Z,3.62
2019-06-20T18:27:15.375Z,3.20
2019-06-20T18:29:45.077Z,3.90
2019-06-20T18:32:14.690Z,3.60
2019-06-20T18:35:00.908Z,3.17
2019-06-20T18:37:30.467Z,3.80
2019-06-20T18:39:48.287Z,3.80
2019-06-20T18:42:17.934Z,3.90
2019-06-20T18:44:47.360Z,3.65
2019-06-20T18:47:16.798Z,4.12
2019-06-20T18:49:47.472Z,3.55
2019-06-20T18:52:16.959Z,3.70
2019-06-20T18:54:46.653Z,3.55
2019-06-20T18:57:17.383Z,3.80
2019-06-20T18:59:46.862Z,3.83
2019-06-20T19:02:18.179Z,3.83
2019-06-20T19:04:50.693Z,4.08
2019-06-20T19:07:31.774Z,3.80
2019-06-20T19:10:01.178Z,4.10
2019-06-20T19:12:31.903Z,3.90
2019-06-20T19:15:01.801Z,3.90
2019-06-20T19:17:31.635Z,4.30
2019-06-20T19:20:01.430Z,4.00
2019-06-20T19:22:32.756Z,3.98
2019-06-20T19:25:06.178Z,4.25
2019-06-20T19:27:46.048Z,3.70
2019-06-20T19:30:12.514Z,3.75
2019-06-20T19:32:42.831Z,4.37
2019-06-20T19:35:13.682Z,3.95
2019-06-20T19:37:43.309Z,3.65
2019-06-20T19:40:14.436Z,3.90
2019-06-20T19:42:44.304Z,4.33
2019-06-20T19:45:14.887Z,4.78
2019-06-20T19:47:44.310Z,4.80
2019-06-20T19:50:14.110Z,5.10
2019-06-20T19:52:44.593Z,6.22
2019-06-20T19:55:15.627Z,5.70
2019-06-20T19:57:45.336Z,5.50
2019-06-20T20:00:15.417Z,5.35
2019-06-20T20:02:45.994Z,5.95
2019-06-20T20:05:19.695Z,5.40
2019-06-20T20:07:47.814Z,5.15
2019-06-20T20:10:32.659Z,5.72
2019-06-20T20:13:03.834Z,4.83
2019-06-20T20:15:35.198Z,4.60
2019-06-20T20:18:04.727Z,5.50
2019-06-20T20:20:34.431Z,5.37
2019-06-20T20:23:03.925Z,5.50
2019-06-20T20:25:36.317Z,5.33
2019-06-20T20:28:05.930Z,4.40
2019-06-20T20:30:35.523Z,5.05
2019-06-20T20:33:05.485Z,5.10
2019-06-20T20:35:36.080Z,4.92
2019-06-20T20:38:05.961Z,4.80
2019-06-20T20:40:35.832Z,5.20
2019-06-20T20:43:07.852Z,5.03
2019-06-20T20:45:40.742Z,5.87
2019-06-20T20:48:10.204Z,5.10
2019-06-20T20:50:40.143Z,5.33
2019-06-20T20:53:12.852Z,4.50
2019-06-20T20:55:42.242Z,5.20
2019-06-20T20:58:11.981Z,5.05
2019-06-20T21:01:11.715Z,5.60
2019-06-20T21:03:41.729Z,5.08
2019-06-20T21:06:11.672Z,5.08
2019-06-20T21:08:41.666Z,5.03
2019-06-20T21:11:13.390Z,4.85
2019-06-20T21:13:43.730Z,4.70
2019-06-20T21:16:13.471Z,5.20
2019-06-20T21:18:45.323Z,4.70
2019-06-20T21:21:14.961Z,4.72
2019-06-20T21:23:44.389Z,4.78
2019-06-20T21:26:13.772Z,4.78
2019-06-20T21:28:43.150Z,4.67
2019-06-20T21:31:12.705Z,4.87
2019-06-20T21:33:42.071Z,5.08
2019-06-20T21:36:11.437Z,4.70
2019-06-20T21:38:40.895Z,4.92
2019-06-20T21:41:10.405Z,4.90
2019-06-20T21:43:39.773Z,4.83
2019-06-20T21:46:09.246Z,4.80
2019-06-20T21:48:38.687Z,4.80
2019-06-20T21:51:08.360Z,4.65
2019-06-20T21:53:37.900Z,4.62
2019-06-20T21:56:07.942Z,4.90
2019-06-20T21:58:37.882Z,4.78
2019-06-20T22:01:09.370Z,4.80
2019-06-20T22:03:40.593Z,4.95
2019-06-20T22:06:22.913Z,4.80
2019-06-20T22:08:41.564Z,4.67
2019-06-20T22:11:11.035Z,4.60
2019-06-20T22:13:42.164Z,4.45
2019-06-20T22:16:11.610Z,5.00
2019-06-20T22:18:41.267Z,5.37
2019-06-20T22:21:10.754Z,4.92
2019-06-20T22:23:40.161Z,4.90
2019-06-20T22:26:09.590Z,4.75
2019-06-20T22:28:39.053Z,5.10
2019-06-20T22:31:08.458Z,4.92
2019-06-20T22:33:37.828Z,4.80
2019-06-20T22:36:10.026Z,5.03
2019-06-20T22:38:41.992Z,4.65
2019-06-20T22:41:11.363Z,5.28
2019-06-20T22:43:40.796Z,5.00
2019-06-20T22:46:10.137Z,5.33
2019-06-20T22:48:39.632Z,5.30
2019-06-20T22:51:08.960Z,5.00
2019-06-20T22:53:38.348Z,5.10
2019-06-20T22:56:07.910Z,5.10
2019-06-20T22:58:37.314Z,4.87
2019-06-20T23:01:07.651Z,4.70
2019-06-20T23:03:37.187Z,5.25
2019-06-20T23:06:06.605Z,4.87
2019-06-20T23:08:35.953Z,4.72
2019-06-20T23:11:05.291Z,5.25
2019-06-20T23:13:35.644Z,4.87
2019-06-20T23:16:05.504Z,5.33
2019-06-20T23:18:34.894Z,4.87
2019-06-20T23:21:05.290Z,4.78
2019-06-20T23:23:34.856Z,5.15
2019-06-20T23:26:05.971Z,5.35
2019-06-20T23:28:35.376Z,4.85
2019-06-20T23:31:05.007Z,5.10
2019-06-20T23:33:34.454Z,5.17
2019-06-20T23:36:03.986Z,5.00
2019-06-20T23:38:33.424Z,4.62
2019-06-20T23:41:02.949Z,5.17
2019-06-20T23:43:32.341Z,4.92
2019-06-20T23:46:01.668Z,5.28
2019-06-20T23:48:31.034Z,5.30
2019-06-20T23:51:00.507Z,5.10
2019-06-20T23:53:29.918Z,4.65
2019-06-20T23:55:59.283Z,5.33
2019-06-20T23:58:28.611Z,5.42
